sensor_id;sensor_type;location;lat;lon;timestamp;P1;durP1;ratioP1;P2;durP2;ratioP2
64682;SDS011;51107;47.652;19.016;2023-04-25T00:02:04;0.65;;;0.50;;
64682;SDS011;51107;47.652;19.016;2023-04-25T00:04:33;0.37;;;0.35;;
64682;SDS011;51107;47.652;19.016;2023-04-25T00:07:02;0.70;;;0.40;;
64682;SDS011;51107;47.652;19.016;2023-04-25T00:09:31;0.50;;;0.40;;
64682;SDS011;51107;47.652;19.016;2023-04-25T00:12:00;0.52;;;0.40;;
64682;SDS011;51107;47.652;19.016;2023-04-25T00:14:29;0.70;;;0.50;;
64682;SDS011;51107;47.652;19.016;2023-04-25T00:16:58;0.43;;;0.40;;
64682;SDS011;51107;47.652;19.016;2023-04-25T00:19:27;0.47;;;0.35;;
64682;SDS011;51107;47.652;19.016;2023-04-25T00:21:56;0.20;;;0.20;;
64682;SDS011;51107;47.652;19.016;2023-04-25T00:24:24;0.55;;;0.40;;
64682;SDS011;51107;47.652;19.016;2023-04-25T00:26:52;1.02;;;0.60;;
64682;SDS011;51107;47.652;19.016;2023-04-25T00:29:21;0.37;;;0.37;;
64682;SDS011;51107;47.652;19.016;2023-04-25T00:31:49;0.35;;;0.30;;
64682;SDS011;51107;47.652;19.016;2023-04-25T00:34:18;0.98;;;0.40;;
64682;SDS011;51107;47.652;19.016;2023-04-25T00:36:46;1.73;;;0.60;;
64682;SDS011;51107;47.652;19.016;2023-04-25T00:39:14;1.48;;;0.52;;
64682;SDS011;51107;47.652;19.016;2023-04-25T00:41:43;0.40;;;0.35;;
64682;SDS011;51107;47.652;19.016;2023-04-25T00:44:13;0.65;;;0.57;;
64682;SDS011;51107;47.652;19.016;2023-04-25T00:46:44;1.02;;;0.50;;
64682;SDS011;51107;47.652;19.016;2023-04-25T00:49:15;0.82;;;0.50;;
64682;SDS011;51107;47.652;19.016;2023-04-25T00:51:44;0.45;;;0.45;;
64682;SDS011;51107;47.652;19.016;2023-04-25T00:54:13;0.52;;;0.50;;
64682;SDS011;51107;47.652;19.016;2023-04-25T00:56:42;0.40;;;0.37;;
64682;SDS011;51107;47.652;19.016;2023-04-25T00:59:10;1.23;;;0.80;;
64682;SDS011;51107;47.652;19.016;2023-04-25T01:01:40;1.00;;;0.60;;
64682;SDS011;51107;47.652;19.016;2023-04-25T01:04:09;0.60;;;0.60;;
64682;SDS011;51107;47.652;19.016;2023-04-25T01:06:38;0.65;;;0.50;;
64682;SDS011;51107;47.652;19.016;2023-04-25T01:09:07;0.80;;;0.50;;
64682;SDS011;51107;47.652;19.016;2023-04-25T01:11:36;0.70;;;0.60;;
64682;SDS011;51107;47.652;19.016;2023-04-25T01:14:04;1.67;;;0.55;;
64682;SDS011;51107;47.652;19.016;2023-04-25T01:16:33;1.12;;;0.82;;
64682;SDS011;51107;47.652;19.016;2023-04-25T01:19:01;0.70;;;0.68;;
64682;SDS011;51107;47.652;19.016;2023-04-25T01:21:37;5.90;;;1.10;;
64682;SDS011;51107;47.652;19.016;2023-04-25T01:24:08;0.85;;;0.65;;
64682;SDS011;51107;47.652;19.016;2023-04-25T01:26:37;1.10;;;0.85;;
64682;SDS011;51107;47.652;19.016;2023-04-25T01:29:06;0.68;;;0.37;;
64682;SDS011;51107;47.652;19.016;2023-04-25T01:31:35;0.98;;;0.88;;
64682;SDS011;51107;47.652;19.016;2023-04-25T01:34:05;1.23;;;0.62;;
64682;SDS011;51107;47.652;19.016;2023-04-25T01:36:35;0.43;;;0.43;;
64682;SDS011;51107;47.652;19.016;2023-04-25T01:39:06;0.98;;;0.80;;
64682;SDS011;51107;47.652;19.016;2023-04-25T01:41:34;1.17;;;1.00;;
64682;SDS011;51107;47.652;19.016;2023-04-25T01:44:03;0.88;;;0.62;;
64682;SDS011;51107;47.652;19.016;2023-04-25T01:46:32;1.10;;;0.88;;
64682;SDS011;51107;47.652;19.016;2023-04-25T01:49:02;0.90;;;0.60;;
64682;SDS011;51107;47.652;19.016;2023-04-25T01:51:32;1.27;;;0.55;;
64682;SDS011;51107;47.652;19.016;2023-04-25T01:54:01;1.05;;;0.70;;
64682;SDS011;51107;47.652;19.016;2023-04-25T01:56:30;1.05;;;0.80;;
64682;SDS011;51107;47.652;19.016;2023-04-25T01:58:59;0.43;;;0.40;;
64682;SDS011;51107;47.652;19.016;2023-04-25T02:01:29;0.82;;;0.68;;
64682;SDS011;51107;47.652;19.016;2023-04-25T02:03:58;0.43;;;0.43;;
64682;SDS011;51107;47.652;19.016;2023-04-25T02:06:28;0.93;;;0.70;;
64682;SDS011;51107;47.652;19.016;2023-04-25T02:08:56;1.00;;;0.77;;
64682;SDS011;51107;47.652;19.016;2023-04-25T02:11:25;0.50;;;0.50;;
64682;SDS011;51107;47.652;19.016;2023-04-25T02:13:54;0.52;;;0.52;;
64682;SDS011;51107;47.652;19.016;2023-04-25T02:16:22;1.00;;;0.77;;
64682;SDS011;51107;47.652;19.016;2023-04-25T02:18:51;0.95;;;0.60;;
64682;SDS011;51107;47.652;19.016;2023-04-25T02:21:20;1.08;;;0.70;;
64682;SDS011;51107;47.652;19.016;2023-04-25T02:23:48;1.50;;;0.90;;
64682;SDS011;51107;47.652;19.016;2023-04-25T02:26:20;0.98;;;0.80;;
64682;SDS011;51107;47.652;19.016;2023-04-25T02:28:51;0.45;;;0.40;;
64682;SDS011;51107;47.652;19.016;2023-04-25T02:31:20;0.98;;;0.70;;
64682;SDS011;51107;47.652;19.016;2023-04-25T02:33:48;0.77;;;0.40;;
64682;SDS011;51107;47.652;19.016;2023-04-25T02:36:19;0.43;;;0.43;;
64682;SDS011;51107;47.652;19.016;2023-04-25T02:38:49;1.00;;;0.80;;
64682;SDS011;51107;47.652;19.016;2023-04-25T02:41:17;0.65;;;0.52;;
64682;SDS011;51107;47.652;19.016;2023-04-25T02:43:46;0.70;;;0.47;;
64682;SDS011;51107;47.652;19.016;2023-04-25T02:46:15;0.70;;;0.55;;
64682;SDS011;51107;47.652;19.016;2023-04-25T02:48:58;0.37;;;0.35;;
64682;SDS011;51107;47.652;19.016;2023-04-25T02:51:29;0.47;;;0.40;;
64682;SDS011;51107;47.652;19.016;2023-04-25T02:53:58;2.40;;;0.80;;
64682;SDS011;51107;47.652;19.016;2023-04-25T02:56:27;0.30;;;0.30;;
64682;SDS011;51107;47.652;19.016;2023-04-25T02:58:58;1.00;;;0.60;;
64682;SDS011;51107;47.652;19.016;2023-04-25T03:01:27;1.00;;;0.80;;
64682;SDS011;51107;47.652;19.016;2023-04-25T03:03:56;0.50;;;0.50;;
64682;SDS011;51107;47.652;19.016;2023-04-25T03:06:24;1.67;;;0.98;;
64682;SDS011;51107;47.652;19.016;2023-04-25T03:08:53;9.10;;;0.82;;
64682;SDS011;51107;47.652;19.016;2023-04-25T03:11:21;1.10;;;0.77;;
64682;SDS011;51107;47.652;19.016;2023-04-25T03:13:49;1.23;;;0.88;;
64682;SDS011;51107;47.652;19.016;2023-04-25T03:16:20;0.50;;;0.50;;
64682;SDS011;51107;47.652;19.016;2023-04-25T03:18:50;1.15;;;0.77;;
64682;SDS011;51107;47.652;19.016;2023-04-25T03:21:19;4.25;;;0.47;;
64682;SDS011;51107;47.652;19.016;2023-04-25T03:23:47;0.90;;;0.73;;
64682;SDS011;51107;47.652;19.016;2023-04-25T03:26:15;0.88;;;0.60;;
64682;SDS011;51107;47.652;19.016;2023-04-25T03:28:44;2.65;;;0.70;;
64682;SDS011;51107;47.652;19.016;2023-04-25T03:31:12;0.73;;;0.50;;
64682;SDS011;51107;47.652;19.016;2023-04-25T03:33:41;1.15;;;0.62;;
64682;SDS011;51107;47.652;19.016;2023-04-25T03:36:09;1.20;;;0.80;;
64682;SDS011;51107;47.652;19.016;2023-04-25T03:38:38;0.90;;;0.70;;
64682;SDS011;51107;47.652;19.016;2023-04-25T03:41:06;0.85;;;0.70;;
64682;SDS011;51107;47.652;19.016;2023-04-25T03:43:36;0.82;;;0.40;;
64682;SDS011;51107;47.652;19.016;2023-04-25T03:46:05;0.75;;;0.55;;
64682;SDS011;51107;47.652;19.016;2023-04-25T03:48:33;0.85;;;0.57;;
64682;SDS011;51107;47.652;19.016;2023-04-25T03:51:01;0.80;;;0.50;;
64682;SDS011;51107;47.652;19.016;2023-04-25T03:53:31;1.00;;;0.60;;
64682;SDS011;51107;47.652;19.016;2023-04-25T03:56:01;0.73;;;0.37;;
64682;SDS011;51107;47.652;19.016;2023-04-25T03:58:31;1.27;;;0.30;;
64682;SDS011;51107;47.652;19.016;2023-04-25T04:01:00;0.57;;;0.22;;
64682;SDS011;51107;47.652;19.016;2023-04-25T04:03:32;0.40;;;0.22;;
64682;SDS011;51107;47.652;19.016;2023-04-25T04:06:01;0.57;;;0.50;;
64682;SDS011;51107;47.652;19.016;2023-04-25T04:08:33;1.00;;;0.57;;
64682;SDS011;51107;47.652;19.016;2023-04-25T04:11:01;0.70;;;0.40;;
64682;SDS011;51107;47.652;19.016;2023-04-25T04:13:30;1.12;;;0.50;;
64682;SDS011;51107;47.652;19.016;2023-04-25T04:15:58;1.20;;;0.70;;
64682;SDS011;51107;47.652;19.016;2023-04-25T04:18:27;6.47;;;0.80;;
64682;SDS011;51107;47.652;19.016;2023-04-25T04:20:56;0.20;;;0.17;;
64682;SDS011;51107;47.652;19.016;2023-04-25T04:23:27;0.68;;;0.60;;
64682;SDS011;51107;47.652;19.016;2023-04-25T04:25:56;0.40;;;0.40;;
64682;SDS011;51107;47.652;19.016;2023-04-25T04:28:25;0.55;;;0.50;;
64682;SDS011;51107;47.652;19.016;2023-04-25T04:30:54;0.50;;;0.40;;
64682;SDS011;51107;47.652;19.016;2023-04-25T04:33:24;0.75;;;0.40;;
64682;SDS011;51107;47.652;19.016;2023-04-25T04:35:53;0.52;;;0.45;;
64682;SDS011;51107;47.652;19.016;2023-04-25T04:38:23;1.12;;;0.80;;
64682;SDS011;51107;47.652;19.016;2023-04-25T04:40:53;3.12;;;0.80;;
64682;SDS011;51107;47.652;19.016;2023-04-25T04:43:22;0.30;;;0.30;;
64682;SDS011;51107;47.652;19.016;2023-04-25T04:45:51;1.05;;;0.60;;
64682;SDS011;51107;47.652;19.016;2023-04-25T04:48:20;0.40;;;0.40;;
64682;SDS011;51107;47.652;19.016;2023-04-25T04:50:53;0.70;;;0.60;;
64682;SDS011;51107;47.652;19.016;2023-04-25T04:53:22;0.50;;;0.50;;
64682;SDS011;51107;47.652;19.016;2023-04-25T04:55:51;0.35;;;0.25;;
64682;SDS011;51107;47.652;19.016;2023-04-25T04:58:21;0.40;;;0.40;;
64682;SDS011;51107;47.652;19.016;2023-04-25T05:00:49;0.40;;;0.37;;
64682;SDS011;51107;47.652;19.016;2023-04-25T05:03:19;0.47;;;0.28;;
64682;SDS011;51107;47.652;19.016;2023-04-25T05:05:48;0.50;;;0.50;;
64682;SDS011;51107;47.652;19.016;2023-04-25T05:08:17;0.30;;;0.30;;
64682;SDS011;51107;47.652;19.016;2023-04-25T05:10:45;0.20;;;0.20;;
64682;SDS011;51107;47.652;19.016;2023-04-25T05:13:14;0.65;;;0.60;;
64682;SDS011;51107;47.652;19.016;2023-04-25T05:15:43;0.25;;;0.25;;
64682;SDS011;51107;47.652;19.016;2023-04-25T05:18:13;0.93;;;0.60;;
64682;SDS011;51107;47.652;19.016;2023-04-25T05:20:41;0.73;;;0.20;;
64682;SDS011;51107;47.652;19.016;2023-04-25T05:23:11;0.40;;;0.37;;
64682;SDS011;51107;47.652;19.016;2023-04-25T05:25:40;0.60;;;0.35;;
64682;SDS011;51107;47.652;19.016;2023-04-25T05:28:09;0.17;;;0.17;;
64682;SDS011;51107;47.652;19.016;2023-04-25T05:30:38;0.30;;;0.20;;
64682;SDS011;51107;47.652;19.016;2023-04-25T05:33:07;0.50;;;0.40;;
64682;SDS011;51107;47.652;19.016;2023-04-25T05:35:36;0.45;;;0.35;;
64682;SDS011;51107;47.652;19.016;2023-04-25T05:38:04;0.20;;;0.20;;
64682;SDS011;51107;47.652;19.016;2023-04-25T05:40:34;1.05;;;0.40;;
64682;SDS011;51107;47.652;19.016;2023-04-25T05:43:04;0.28;;;0.28;;
64682;SDS011;51107;47.652;19.016;2023-04-25T05:45:33;0.52;;;0.30;;
64682;SDS011;51107;47.652;19.016;2023-04-25T05:48:02;0.90;;;0.30;;
64682;SDS011;51107;47.652;19.016;2023-04-25T05:50:32;0.30;;;0.20;;
64682;SDS011;51107;47.652;19.016;2023-04-25T05:53:00;15.38;;;0.30;;
64682;SDS011;51107;47.652;19.016;2023-04-25T05:55:29;0.75;;;0.35;;
64682;SDS011;51107;47.652;19.016;2023-04-25T05:57:58;0.93;;;0.55;;
64682;SDS011;51107;47.652;19.016;2023-04-25T06:00:26;0.30;;;0.30;;
64682;SDS011;51107;47.652;19.016;2023-04-25T06:02:55;0.40;;;0.30;;
64682;SDS011;51107;47.652;19.016;2023-04-25T06:05:24;0.20;;;0.17;;
64682;SDS011;51107;47.652;19.016;2023-04-25T06:07:53;0.65;;;0.43;;
64682;SDS011;51107;47.652;19.016;2023-04-25T06:10:21;0.80;;;0.50;;
64682;SDS011;51107;47.652;19.016;2023-04-25T06:12:50;0.98;;;0.75;;
64682;SDS011;51107;47.652;19.016;2023-04-25T06:15:18;0.85;;;0.50;;
64682;SDS011;51107;47.652;19.016;2023-04-25T06:17:50;0.60;;;0.50;;
64682;SDS011;51107;47.652;19.016;2023-04-25T06:20:19;0.55;;;0.55;;
64682;SDS011;51107;47.652;19.016;2023-04-25T06:22:51;0.35;;;0.30;;
64682;SDS011;51107;47.652;19.016;2023-04-25T06:25:20;6.72;;;1.67;;
64682;SDS011;51107;47.652;19.016;2023-04-25T06:27:48;1.35;;;0.82;;
64682;SDS011;51107;47.652;19.016;2023-04-25T06:30:17;1.20;;;1.00;;
64682;SDS011;51107;47.652;19.016;2023-04-25T06:32:50;1.23;;;0.88;;
64682;SDS011;51107;47.652;19.016;2023-04-25T06:35:19;2.75;;;0.73;;
64682;SDS011;51107;47.652;19.016;2023-04-25T06:37:48;0.75;;;0.70;;
64682;SDS011;51107;47.652;19.016;2023-04-25T06:40:19;1.27;;;0.70;;
64682;SDS011;51107;47.652;19.016;2023-04-25T06:42:48;1.08;;;0.93;;
64682;SDS011;51107;47.652;19.016;2023-04-25T06:45:19;1.52;;;1.08;;
64682;SDS011;51107;47.652;19.016;2023-04-25T06:47:47;1.23;;;0.68;;
64682;SDS011;51107;47.652;19.016;2023-04-25T06:50:16;1.75;;;1.10;;
64682;SDS011;51107;47.652;19.016;2023-04-25T06:52:45;1.20;;;1.05;;
64682;SDS011;51107;47.652;19.016;2023-04-25T06:55:13;0.88;;;0.80;;
64682;SDS011;51107;47.652;19.016;2023-04-25T06:57:42;1.55;;;1.02;;
64682;SDS011;51107;47.652;19.016;2023-04-25T07:00:12;9.52;;;1.00;;
64682;SDS011;51107;47.652;19.016;2023-04-25T07:02:41;1.33;;;1.20;;
64682;SDS011;51107;47.652;19.016;2023-04-25T07:05:12;1.42;;;1.10;;
64682;SDS011;51107;47.652;19.016;2023-04-25T07:07:40;0.88;;;0.82;;
64682;SDS011;51107;47.652;19.016;2023-04-25T07:10:10;2.42;;;1.25;;
64682;SDS011;51107;47.652;19.016;2023-04-25T07:12:39;1.83;;;1.00;;
64682;SDS011;51107;47.652;19.016;2023-04-25T07:15:07;0.52;;;0.52;;
64682;SDS011;51107;47.652;19.016;2023-04-25T07:17:38;0.90;;;0.62;;
64682;SDS011;51107;47.652;19.016;2023-04-25T07:20:07;1.77;;;1.00;;
64682;SDS011;51107;47.652;19.016;2023-04-25T07:22:37;1.12;;;0.80;;
64682;SDS011;51107;47.652;19.016;2023-04-25T07:25:06;1.58;;;1.05;;
64682;SDS011;51107;47.652;19.016;2023-04-25T07:27:35;1.62;;;1.15;;
64682;SDS011;51107;47.652;19.016;2023-04-25T07:30:03;1.12;;;0.90;;
64682;SDS011;51107;47.652;19.016;2023-04-25T07:32:32;0.70;;;0.70;;
64682;SDS011;51107;47.652;19.016;2023-04-25T07:35:01;1.70;;;1.23;;
64682;SDS011;51107;47.652;19.016;2023-04-25T07:37:31;1.30;;;0.93;;
64682;SDS011;51107;47.652;19.016;2023-04-25T07:39:59;1.35;;;0.85;;
64682;SDS011;51107;47.652;19.016;2023-04-25T07:42:30;0.85;;;0.60;;
64682;SDS011;51107;47.652;19.016;2023-04-25T07:44:58;0.60;;;0.60;;
64682;SDS011;51107;47.652;19.016;2023-04-25T07:47:26;0.93;;;0.70;;
64682;SDS011;51107;47.652;19.016;2023-04-25T07:49:55;0.88;;;0.80;;
64682;SDS011;51107;47.652;19.016;2023-04-25T07:52:25;1.15;;;1.05;;
64682;SDS011;51107;47.652;19.016;2023-04-25T07:54:54;2.08;;;1.00;;
64682;SDS011;51107;47.652;19.016;2023-04-25T07:57:24;1.40;;;0.85;;
64682;SDS011;51107;47.652;19.016;2023-04-25T07:59:53;1.45;;;1.05;;
64682;SDS011;51107;47.652;19.016;2023-04-25T08:02:22;1.48;;;1.02;;
64682;SDS011;51107;47.652;19.016;2023-04-25T08:04:50;1.50;;;1.00;;
64682;SDS011;51107;47.652;19.016;2023-04-25T08:07:20;1.55;;;0.80;;
64682;SDS011;51107;47.652;19.016;2023-04-25T08:09:48;0.75;;;0.62;;
64682;SDS011;51107;47.652;19.016;2023-04-25T08:12:17;1.25;;;0.85;;
64682;SDS011;51107;47.652;19.016;2023-04-25T08:14:47;1.30;;;1.10;;
64682;SDS011;51107;47.652;19.016;2023-04-25T08:17:16;0.50;;;0.50;;
64682;SDS011;51107;47.652;19.016;2023-04-25T08:19:46;0.80;;;0.80;;
64682;SDS011;51107;47.652;19.016;2023-04-25T08:22:15;0.73;;;0.70;;
64682;SDS011;51107;47.652;19.016;2023-04-25T08:24:44;0.88;;;0.60;;
64682;SDS011;51107;47.652;19.016;2023-04-25T08:27:13;0.93;;;0.75;;
64682;SDS011;51107;47.652;19.016;2023-04-25T08:29:41;0.70;;;0.60;;
64682;SDS011;51107;47.652;19.016;2023-04-25T08:32:10;0.68;;;0.50;;
64682;SDS011;51107;47.652;19.016;2023-04-25T08:34:40;1.12;;;0.50;;
64682;SDS011;51107;47.652;19.016;2023-04-25T08:37:09;1.35;;;0.60;;
64682;SDS011;51107;47.652;19.016;2023-04-25T08:39:40;1.27;;;0.70;;
64682;SDS011;51107;47.652;19.016;2023-04-25T08:42:12;1.02;;;0.70;;
64682;SDS011;51107;47.652;19.016;2023-04-25T08:44:40;0.65;;;0.50;;
64682;SDS011;51107;47.652;19.016;2023-04-25T08:47:08;0.73;;;0.62;;
64682;SDS011;51107;47.652;19.016;2023-04-25T08:49:39;1.45;;;0.93;;
64682;SDS011;51107;47.652;19.016;2023-04-25T08:52:12;0.52;;;0.52;;
64682;SDS011;51107;47.652;19.016;2023-04-25T08:54:43;1.98;;;1.05;;
64682;SDS011;51107;47.652;19.016;2023-04-25T08:57:16;1.80;;;1.00;;
64682;SDS011;51107;47.652;19.016;2023-04-25T08:59:47;1.62;;;1.30;;
64682;SDS011;51107;47.652;19.016;2023-04-25T09:02:17;0.60;;;0.60;;
64682;SDS011;51107;47.652;19.016;2023-04-25T09:04:49;0.75;;;0.70;;
64682;SDS011;51107;47.652;19.016;2023-04-25T09:07:17;1.23;;;0.73;;
64682;SDS011;51107;47.652;19.016;2023-04-25T09:09:46;1.77;;;0.90;;
64682;SDS011;51107;47.652;19.016;2023-04-25T09:12:19;1.48;;;0.80;;
64682;SDS011;51107;47.652;19.016;2023-04-25T09:15:08;1.15;;;0.65;;
64682;SDS011;51107;47.652;19.016;2023-04-25T09:17:41;1.05;;;0.70;;
64682;SDS011;51107;47.652;19.016;2023-04-25T09:20:13;0.73;;;0.70;;
64682;SDS011;51107;47.652;19.016;2023-04-25T09:22:42;1.40;;;0.88;;
64682;SDS011;51107;47.652;19.016;2023-04-25T09:25:14;0.90;;;0.65;;
64682;SDS011;51107;47.652;19.016;2023-04-25T09:27:50;1.12;;;0.70;;
64682;SDS011;51107;47.652;19.016;2023-04-25T09:30:30;0.75;;;0.60;;
64682;SDS011;51107;47.652;19.016;2023-04-25T09:33:08;1.00;;;0.70;;
64682;SDS011;51107;47.652;19.016;2023-04-25T09:35:41;0.68;;;0.55;;
64682;SDS011;51107;47.652;19.016;2023-04-25T09:38:13;1.15;;;0.80;;
64682;SDS011;51107;47.652;19.016;2023-04-25T09:40:51;0.50;;;0.40;;
64682;SDS011;51107;47.652;19.016;2023-04-25T09:43:24;1.02;;;0.57;;
64682;SDS011;51107;47.652;19.016;2023-04-25T09:45:54;0.50;;;0.50;;
64682;SDS011;51107;47.652;19.016;2023-04-25T09:48:27;0.80;;;0.50;;
64682;SDS011;51107;47.652;19.016;2023-04-25T09:51:07;0.40;;;0.40;;
64682;SDS011;51107;47.652;19.016;2023-04-25T09:53:38;1.08;;;0.30;;
64682;SDS011;51107;47.652;19.016;2023-04-25T09:56:09;0.20;;;0.20;;
64682;SDS011;51107;47.652;19.016;2023-04-25T09:58:39;0.85;;;0.52;;
64682;SDS011;51107;47.652;19.016;2023-04-25T10:01:09;0.50;;;0.50;;
64682;SDS011;51107;47.652;19.016;2023-04-25T10:03:39;0.62;;;0.50;;
64682;SDS011;51107;47.652;19.016;2023-04-25T10:06:14;0.43;;;0.35;;
64682;SDS011;51107;47.652;19.016;2023-04-25T10:08:50;0.28;;;0.20;;
64682;SDS011;51107;47.652;19.016;2023-04-25T10:11:21;0.52;;;0.40;;
64682;SDS011;51107;47.652;19.016;2023-04-25T10:13:52;0.30;;;0.30;;
64682;SDS011;51107;47.652;19.016;2023-04-25T10:16:21;0.30;;;0.30;;
64682;SDS011;51107;47.652;19.016;2023-04-25T10:18:50;1.00;;;0.50;;
64682;SDS011;51107;47.652;19.016;2023-04-25T10:21:19;0.60;;;0.40;;
64682;SDS011;51107;47.652;19.016;2023-04-25T10:23:49;0.57;;;0.50;;
64682;SDS011;51107;47.652;19.016;2023-04-25T10:26:18;0.43;;;0.30;;
64682;SDS011;51107;47.652;19.016;2023-04-25T10:31:25;0.32;;;0.32;;
64682;SDS011;51107;47.652;19.016;2023-04-25T10:33:54;0.10;;;0.10;;
64682;SDS011;51107;47.652;19.016;2023-04-25T10:36:23;0.35;;;0.35;;
64682;SDS011;51107;47.652;19.016;2023-04-25T10:38:53;0.45;;;0.32;;
64682;SDS011;51107;47.652;19.016;2023-04-25T10:41:22;0.10;;;0.10;;
64682;SDS011;51107;47.652;19.016;2023-04-25T10:43:58;0.43;;;0.37;;
64682;SDS011;51107;47.652;19.016;2023-04-25T10:46:29;0.30;;;0.30;;
64682;SDS011;51107;47.652;19.016;2023-04-25T10:49:01;0.10;;;0.10;;
64682;SDS011;51107;47.652;19.016;2023-04-25T10:51:31;0.22;;;0.20;;
64682;SDS011;51107;47.652;19.016;2023-04-25T10:54:21;0.45;;;0.28;;
64682;SDS011;51107;47.652;19.016;2023-04-25T10:56:53;0.20;;;0.20;;
64682;SDS011;51107;47.652;19.016;2023-04-25T10:59:23;0.47;;;0.30;;
64682;SDS011;51107;47.652;19.016;2023-04-25T11:01:53;0.30;;;0.20;;
64682;SDS011;51107;47.652;19.016;2023-04-25T11:04:28;0.20;;;0.10;;
64682;SDS011;51107;47.652;19.016;2023-04-25T11:09:37;0.20;;;0.20;;
64682;SDS011;51107;47.652;19.016;2023-04-25T11:12:08;0.20;;;0.20;;
64682;SDS011;51107;47.652;19.016;2023-04-25T11:14:40;0.17;;;0.17;;
64682;SDS011;51107;47.652;19.016;2023-04-25T11:17:09;0.32;;;0.32;;
64682;SDS011;51107;47.652;19.016;2023-04-25T11:19:39;0.20;;;0.10;;
64682;SDS011;51107;47.652;19.016;2023-04-25T11:22:08;0.37;;;0.25;;
64682;SDS011;51107;47.652;19.016;2023-04-25T11:24:38;0.10;;;0.10;;
64682;SDS011;51107;47.652;19.016;2023-04-25T11:27:06;0.20;;;0.20;;
64682;SDS011;51107;47.652;19.016;2023-04-25T11:29:35;0.10;;;0.10;;
64682;SDS011;51107;47.652;19.016;2023-04-25T11:32:04;0.30;;;0.20;;
64682;SDS011;51107;47.652;19.016;2023-04-25T11:34:32;0.30;;;0.15;;
64682;SDS011;51107;47.652;19.016;2023-04-25T11:37:02;0.30;;;0.20;;
64682;SDS011;51107;47.652;19.016;2023-04-25T11:39:31;0.10;;;0.10;;
64682;SDS011;51107;47.652;19.016;2023-04-25T11:41:59;0.30;;;0.30;;
64682;SDS011;51107;47.652;19.016;2023-04-25T11:44:39;0.20;;;0.20;;
64682;SDS011;51107;47.652;19.016;2023-04-25T11:47:09;0.10;;;0.10;;
64682;SDS011;51107;47.652;19.016;2023-04-25T11:49:37;0.43;;;0.32;;
64682;SDS011;51107;47.652;19.016;2023-04-25T11:52:06;0.20;;;0.20;;
64682;SDS011;51107;47.652;19.016;2023-04-25T11:54:36;0.10;;;0.10;;
64682;SDS011;51107;47.652;19.016;2023-04-25T11:57:04;0.13;;;0.13;;
64682;SDS011;51107;47.652;19.016;2023-04-25T11:59:35;0.20;;;0.20;;
64682;SDS011;51107;47.652;19.016;2023-04-25T12:02:04;0.20;;;0.20;;
64682;SDS011;51107;47.652;19.016;2023-04-25T12:04:35;0.20;;;0.20;;
64682;SDS011;51107;47.652;19.016;2023-04-25T12:07:04;0.20;;;0.20;;
64682;SDS011;51107;47.652;19.016;2023-04-25T12:09:32;0.20;;;0.20;;
64682;SDS011;51107;47.652;19.016;2023-04-25T12:12:02;0.52;;;0.30;;
64682;SDS011;51107;47.652;19.016;2023-04-25T12:14:33;0.62;;;0.35;;
64682;SDS011;51107;47.652;19.016;2023-04-25T12:17:03;0.28;;;0.25;;
64682;SDS011;51107;47.652;19.016;2023-04-25T12:19:34;0.20;;;0.20;;
64682;SDS011;51107;47.652;19.016;2023-04-25T12:22:10;0.70;;;0.50;;
64682;SDS011;51107;47.652;19.016;2023-04-25T12:24:47;0.10;;;0.10;;
64682;SDS011;51107;47.652;19.016;2023-04-25T12:27:17;0.28;;;0.28;;
64682;SDS011;51107;47.652;19.016;2023-04-25T12:29:50;0.40;;;0.32;;
64682;SDS011;51107;47.652;19.016;2023-04-25T12:32:20;0.47;;;0.40;;
64682;SDS011;51107;47.652;19.016;2023-04-25T12:34:49;0.30;;;0.20;;
64682;SDS011;51107;47.652;19.016;2023-04-25T12:37:18;0.20;;;0.20;;
64682;SDS011;51107;47.652;19.016;2023-04-25T12:39:46;0.35;;;0.28;;
64682;SDS011;51107;47.652;19.016;2023-04-25T12:42:15;0.30;;;0.30;;
64682;SDS011;51107;47.652;19.016;2023-04-25T12:44:43;0.20;;;0.20;;
64682;SDS011;51107;47.652;19.016;2023-04-25T12:47:12;0.30;;;0.20;;
64682;SDS011;51107;47.652;19.016;2023-04-25T12:49:41;0.40;;;0.40;;
64682;SDS011;51107;47.652;19.016;2023-04-25T12:52:09;1.35;;;0.30;;
64682;SDS011;51107;47.652;19.016;2023-04-25T12:54:38;0.40;;;0.20;;
64682;SDS011;51107;47.652;19.016;2023-04-25T12:57:07;0.95;;;0.40;;
64682;SDS011;51107;47.652;19.016;2023-04-25T12:59:35;0.25;;;0.25;;
64682;SDS011;51107;47.652;19.016;2023-04-25T13:02:04;0.57;;;0.57;;
64682;SDS011;51107;47.652;19.016;2023-04-25T13:04:32;0.35;;;0.35;;
64682;SDS011;51107;47.652;19.016;2023-04-25T13:07:01;0.28;;;0.25;;
64682;SDS011;51107;47.652;19.016;2023-04-25T13:09:29;0.62;;;0.40;;
64682;SDS011;51107;47.652;19.016;2023-04-25T13:11:57;0.50;;;0.40;;
64682;SDS011;51107;47.652;19.016;2023-04-25T13:14:26;0.62;;;0.50;;
64682;SDS011;51107;47.652;19.016;2023-04-25T13:16:55;1.00;;;0.50;;
64682;SDS011;51107;47.652;19.016;2023-04-25T13:19:24;0.30;;;0.30;;
64682;SDS011;51107;47.652;19.016;2023-04-25T13:21:53;1.80;;;0.47;;
64682;SDS011;51107;47.652;19.016;2023-04-25T13:24:22;0.55;;;0.35;;
64682;SDS011;51107;47.652;19.016;2023-04-25T13:26:50;0.98;;;0.40;;
64682;SDS011;51107;47.652;19.016;2023-04-25T13:29:18;0.43;;;0.30;;
64682;SDS011;51107;47.652;19.016;2023-04-25T13:31:48;0.25;;;0.25;;
64682;SDS011;51107;47.652;19.016;2023-04-25T13:34:16;0.50;;;0.47;;
64682;SDS011;51107;47.652;19.016;2023-04-25T13:36:44;3.12;;;0.70;;
64682;SDS011;51107;47.652;19.016;2023-04-25T13:39:13;0.35;;;0.35;;
64682;SDS011;51107;47.652;19.016;2023-04-25T13:41:41;0.55;;;0.37;;
64682;SDS011;51107;47.652;19.016;2023-04-25T13:44:10;0.75;;;0.57;;
64682;SDS011;51107;47.652;19.016;2023-04-25T13:46:39;0.45;;;0.37;;
64682;SDS011;51107;47.652;19.016;2023-04-25T13:49:17;0.50;;;0.40;;
64682;SDS011;51107;47.652;19.016;2023-04-25T13:51:59;0.40;;;0.30;;
64682;SDS011;51107;47.652;19.016;2023-04-25T13:54:33;0.43;;;0.43;;
64682;SDS011;51107;47.652;19.016;2023-04-25T13:57:10;0.35;;;0.35;;
64682;SDS011;51107;47.652;19.016;2023-04-25T13:59:40;0.35;;;0.35;;
64682;SDS011;51107;47.652;19.016;2023-04-25T14:02:12;1.17;;;0.40;;
64682;SDS011;51107;47.652;19.016;2023-04-25T14:04:41;0.40;;;0.30;;
64682;SDS011;51107;47.652;19.016;2023-04-25T14:07:11;0.47;;;0.47;;
64682;SDS011;51107;47.652;19.016;2023-04-25T14:09:40;0.77;;;0.50;;
64682;SDS011;51107;47.652;19.016;2023-04-25T14:12:10;0.57;;;0.50;;
64682;SDS011;51107;47.652;19.016;2023-04-25T14:14:40;0.32;;;0.32;;
64682;SDS011;51107;47.652;19.016;2023-04-25T14:17:18;0.52;;;0.50;;
64682;SDS011;51107;47.652;19.016;2023-04-25T14:19:52;0.55;;;0.50;;
64682;SDS011;51107;47.652;19.016;2023-04-25T14:22:23;0.45;;;0.40;;
64682;SDS011;51107;47.652;19.016;2023-04-25T14:24:56;0.40;;;0.40;;
64682;SDS011;51107;47.652;19.016;2023-04-25T14:27:25;0.80;;;0.25;;
64682;SDS011;51107;47.652;19.016;2023-04-25T14:29:58;0.35;;;0.30;;
64682;SDS011;51107;47.652;19.016;2023-04-25T14:32:27;0.43;;;0.40;;
64682;SDS011;51107;47.652;19.016;2023-04-25T14:34:55;0.75;;;0.50;;
64682;SDS011;51107;47.652;19.016;2023-04-25T14:37:26;0.50;;;0.50;;
64682;SDS011;51107;47.652;19.016;2023-04-25T14:39:56;0.30;;;0.30;;
64682;SDS011;51107;47.652;19.016;2023-04-25T14:42:28;3.15;;;0.50;;
64682;SDS011;51107;47.652;19.016;2023-04-25T14:44:56;10.35;;;0.50;;
64682;SDS011;51107;47.652;19.016;2023-04-25T14:47:24;0.30;;;0.30;;
64682;SDS011;51107;47.652;19.016;2023-04-25T14:49:53;0.82;;;0.62;;
64682;SDS011;51107;47.652;19.016;2023-04-25T14:52:23;0.50;;;0.50;;
64682;SDS011;51107;47.652;19.016;2023-04-25T14:54:52;0.40;;;0.40;;